createdAt,value
2019-06-26T00:01:37.755Z,12.00
2019-06-26T00:04:05.394Z,12.23
2019-06-26T00:06:33.298Z,12.80
2019-06-26T00:09:00.850Z,12.40
2019-06-26T00:11:28.429Z,13.07
2019-06-26T00:13:55.654Z,13.63
2019-06-26T00:16:22.871Z,13.27
2019-06-26T00:18:50.356Z,12.57
2019-06-26T00:21:17.961Z,12.57
2019-06-26T00:23:45.180Z,12.60
2019-06-26T00:26:12.416Z,12.07
2019-06-26T00:28:39.633Z,12.07
2019-06-26T00:31:06.883Z,12.57
2019-06-26T00:33:34.097Z,11.90
2019-06-26T00:36:01.337Z,12.53
2019-06-26T00:38:29.205Z,12.57
2019-06-26T00:40:56.827Z,12.90
2019-06-26T00:43:24.428Z,12.83
2019-06-26T00:45:52.105Z,13.67
2019-06-26T00:48:19.431Z,13.60
2019-06-26T00:50:46.774Z,13.87
2019-06-26T00:53:14.286Z,14.53
2019-06-26T00:55:42.018Z,13.97
2019-06-26T00:58:09.242Z,14.00
2019-06-26T01:00:42.406Z,15.23
2019-06-26T01:03:09.918Z,14.43
2019-06-26T01:05:37.493Z,14.60
2019-06-26T01:08:04.808Z,14.80
2019-06-26T01:10:32.413Z,14.40
2019-06-26T01:12:59.950Z,14.27
2019-06-26T01:15:27.265Z,15.30
2019-06-26T01:17:54.489Z,15.37
2019-06-26T01:20:21.709Z,14.17
2019-06-26T01:22:49.264Z,15.33
2019-06-26T01:25:17.130Z,14.50
2019-06-26T01:27:44.366Z,16.17
2019-06-26T01:30:12.350Z,15.57
2019-06-26T01:32:40.001Z,14.97
2019-06-26T01:35:07.669Z,15.33
2019-06-26T01:37:34.977Z,15.57
2019-06-26T01:40:02.218Z,15.20
2019-06-26T01:42:29.437Z,15.50
2019-06-26T01:44:57.295Z,15.47
2019-06-26T01:47:24.525Z,15.23
2019-06-26T01:49:51.789Z,16.17
2019-06-26T01:52:19.092Z,15.77
2019-06-26T01:54:46.347Z,15.10
2019-06-26T01:57:13.713Z,15.77
2019-06-26T01:59:40.945Z,16.53
2019-06-26T02:02:08.281Z,16.03
2019-06-26T02:04:35.505Z,17.03
2019-06-26T02:07:02.768Z,14.83
2019-06-26T02:09:30.110Z,16.90
2019-06-26T02:12:00.420Z,16.43
2019-06-26T02:14:31.377Z,16.23
2019-06-26T02:16:56.405Z,16.13
2019-06-26T02:19:23.621Z,16.73
2019-06-26T02:21:50.865Z,17.87
2019-06-26T02:24:18.750Z,16.83
2019-06-26T02:26:46.049Z,16.90
2019-06-26T02:29:13.661Z,16.63
2019-06-26T02:31:40.918Z,16.87
2019-06-26T02:34:08.319Z,15.77
2019-06-26T02:36:36.137Z,16.37
2019-06-26T02:39:05.749Z,17.27
2019-06-26T02:41:32.998Z,17.83
2019-06-26T02:44:00.233Z,16.93
2019-06-26T02:46:27.454Z,17.90
2019-06-26T02:48:55.072Z,18.40
2019-06-26T02:51:22.616Z,16.17
2019-06-26T02:53:50.292Z,17.53
2019-06-26T02:56:17.837Z,17.40
2019-06-26T02:58:45.157Z,18.87
2019-06-26T03:01:12.739Z,18.33
2019-06-26T03:03:40.069Z,21.07
2019-06-26T03:06:07.562Z,21.63
2019-06-26T03:08:34.782Z,20.90
2019-06-26T03:11:01.999Z,18.60
2019-06-26T03:13:29.227Z,19.27
2019-06-26T03:15:56.445Z,20.17
2019-06-26T03:18:24.026Z,19.30
2019-06-26T03:20:54.529Z,19.73
2019-06-26T03:23:21.797Z,20.13
2019-06-26T03:25:49.110Z,20.27
2019-06-26T03:28:16.732Z,21.53
2019-06-26T03:30:44.038Z,19.80
2019-06-26T03:33:11.672Z,19.90
2019-06-26T03:35:40.817Z,18.47
2019-06-26T03:38:08.475Z,18.90
2019-06-26T03:40:35.789Z,20.67
2019-06-26T03:43:03.448Z,19.23
2019-06-26T03:45:30.791Z,22.30
2019-06-26T03:47:58.162Z,21.00
2019-06-26T03:50:25.845Z,23.60
2019-06-26T03:52:53.347Z,21.40
2019-06-26T03:55:20.995Z,21.17
2019-06-26T03:57:48.392Z,22.13
2019-06-26T04:00:21.853Z,20.50
2019-06-26T04:02:49.106Z,21.40
2019-06-26T04:05:16.341Z,21.47
2019-06-26T04:07:43.602Z,23.73
2019-06-26T04:10:10.914Z,22.03
2019-06-26T04:12:38.157Z,21.77
2019-06-26T04:15:05.936Z,22.87
2019-06-26T04:17:33.838Z,21.33
2019-06-26T04:20:01.455Z,21.53
2019-06-26T04:22:29.381Z,21.83
2019-06-26T04:24:56.608Z,19.80
2019-06-26T04:27:24.229Z,21.37
2019-06-26T04:29:51.825Z,21.20
2019-06-26T04:32:19.497Z,20.23
2019-06-26T04:34:47.049Z,20.60
2019-06-26T04:37:14.617Z,20.30
2019-06-26T04:39:41.847Z,20.03
2019-06-26T04:42:09.091Z,20.47
2019-06-26T04:44:36.414Z,21.10
2019-06-26T04:47:03.636Z,19.60
2019-06-26T04:49:30.902Z,20.80
2019-06-26T04:51:58.220Z,19.10
2019-06-26T04:54:25.449Z,18.73
2019-06-26T04:56:52.770Z,20.27
2019-06-26T04:59:20.133Z,20.87
2019-06-26T05:01:47.757Z,20.97
2019-06-26T05:04:14.986Z,20.50
2019-06-26T05:06:42.562Z,20.10
2019-06-26T05:09:10.237Z,19.77
2019-06-26T05:11:37.470Z,19.73
2019-06-26T05:14:04.791Z,20.43
2019-06-26T05:16:32.285Z,18.77
2019-06-26T05:18:59.950Z,17.13
2019-06-26T05:21:27.509Z,17.73
2019-06-26T05:23:55.065Z,17.57
2019-06-26T05:26:22.938Z,17.50
2019-06-26T05:28:50.164Z,17.57
2019-06-26T05:31:17.768Z,18.67
2019-06-26T05:33:45.304Z,17.60
2019-06-26T05:36:12.624Z,17.40
2019-06-26T05:38:39.988Z,17.27
2019-06-26T05:41:07.269Z,17.20
2019-06-26T05:43:34.584Z,17.70
2019-06-26T05:46:02.093Z,17.90
2019-06-26T05:48:29.313Z,18.70
2019-06-26T05:50:56.637Z,18.10
2019-06-26T05:53:24.134Z,17.87
2019-06-26T05:55:52.021Z,17.13
2019-06-26T05:58:19.414Z,17.43
2019-06-26T06:00:46.973Z,18.80
2019-06-26T06:03:14.214Z,17.57
2019-06-26T06:05:41.541Z,17.00
2019-06-26T06:08:09.182Z,19.13
2019-06-26T06:10:36.441Z,18.20
2019-06-26T06:13:03.737Z,18.27
2019-06-26T06:15:31.347Z,18.23
2019-06-26T06:17:58.661Z,18.17
2019-06-26T06:20:37.881Z,18.50
2019-06-26T06:23:05.902Z,17.93
2019-06-26T06:25:33.137Z,18.67
2019-06-26T06:28:00.383Z,18.77
2019-06-26T06:30:27.968Z,19.50
2019-06-26T06:32:55.543Z,19.30
2019-06-26T06:35:22.784Z,18.30
2019-06-26T06:37:50.282Z,17.60
2019-06-26T06:40:18.017Z,17.43
2019-06-26T06:42:45.557Z,18.30
2019-06-26T06:45:14.190Z,17.07
2019-06-26T06:47:44.429Z,16.87
2019-06-26T06:50:12.225Z,17.07
2019-06-26T06:52:39.787Z,15.93
2019-06-26T06:55:07.017Z,15.93
2019-06-26T06:57:34.603Z,16.33
2019-06-26T07:00:01.840Z,16.07
2019-06-26T07:02:29.510Z,14.73
2019-06-26T07:04:56.869Z,15.47
2019-06-26T07:07:24.331Z,15.97
2019-06-26T07:09:51.645Z,16.27
2019-06-26T07:12:20.898Z,15.50
2019-06-26T07:14:48.010Z,14.47
2019-06-26T07:17:20.501Z,14.60
2019-06-26T07:19:44.738Z,14.67
2019-06-26T07:22:12.349Z,15.37
2019-06-26T07:24:39.662Z,15.00
2019-06-26T07:27:06.982Z,14.97
2019-06-26T07:29:34.305Z,14.17
2019-06-26T07:32:01.433Z,13.90
2019-06-26T07:34:28.664Z,13.53
2019-06-26T07:36:55.977Z,14.23
2019-06-26T07:39:23.615Z,15.23
2019-06-26T07:41:50.981Z,14.33
2019-06-26T07:44:18.735Z,14.93
2019-06-26T07:46:46.297Z,14.50
2019-06-26T07:49:13.523Z,15.00
2019-06-26T07:51:40.883Z,13.43
2019-06-26T07:54:08.214Z,14.17
2019-06-26T07:56:36.163Z,13.73
2019-06-26T07:59:03.781Z,14.07
2019-06-26T08:01:31.106Z,12.87
2019-06-26T08:03:58.402Z,13.10
2019-06-26T08:06:25.666Z,12.47
2019-06-26T08:08:53.297Z,13.17
2019-06-26T08:11:20.925Z,11.60
2019-06-26T08:13:48.471Z,11.17
2019-06-26T08:16:16.077Z,10.47
2019-06-26T08:18:43.331Z,9.13
2019-06-26T08:21:12.501Z,8.90
2019-06-26T08:23:40.089Z,8.83
2019-06-26T08:26:07.833Z,8.47
2019-06-26T08:28:35.436Z,7.63
2019-06-26T08:31:02.762Z,7.97
2019-06-26T08:33:30.062Z,7.40
2019-06-26T08:35:57.293Z,7.73
2019-06-26T08:38:24.542Z,7.83
2019-06-26T08:40:51.781Z,7.30
2019-06-26T08:43:19.126Z,7.67
2019-06-26T08:45:46.683Z,7.62
2019-06-26T08:48:23.141Z,7.78
2019-06-26T08:50:43.205Z,8.20
2019-06-26T08:53:10.662Z,8.03
2019-06-26T08:55:37.965Z,7.57
2019-06-26T08:58:05.893Z,7.23
2019-06-26T09:00:33.355Z,8.37
2019-06-26T09:03:00.703Z,7.77
2019-06-26T09:05:28.281Z,8.10
2019-06-26T09:07:55.631Z,8.47
2019-06-26T09:10:22.942Z,7.70
2019-06-26T09:12:50.179Z,7.70
2019-06-26T09:15:17.501Z,8.30
2019-06-26T09:17:44.729Z,7.20
2019-06-26T09:20:15.039Z,6.90
2019-06-26T09:22:42.263Z,7.60
2019-06-26T09:25:21.583Z,7.70
2019-06-26T09:27:39.080Z,7.50
2019-06-26T09:30:06.782Z,7.93
2019-06-26T09:32:34.017Z,7.13
2019-06-26T09:35:01.404Z,7.47
2019-06-26T09:37:28.688Z,7.63
2019-06-26T09:39:55.961Z,7.60
2019-06-26T09:42:23.249Z,7.47
2019-06-26T09:44:50.866Z,8.27
2019-06-26T09:47:18.098Z,7.37
2019-06-26T09:49:46.090Z,6.90
2019-06-26T09:52:13.666Z,6.70
2019-06-26T09:54:40.902Z,7.73
2019-06-26T09:57:08.266Z,7.23
2019-06-26T09:59:35.494Z,6.90
2019-06-26T10:02:02.890Z,6.77
2019-06-26T10:04:30.461Z,7.03
2019-06-26T10:06:58.187Z,6.37
2019-06-26T10:09:25.841Z,6.28
2019-06-26T10:11:53.081Z,6.95
2019-06-26T10:14:20.653Z,7.10
2019-06-26T10:16:48.213Z,6.47
2019-06-26T10:19:15.448Z,7.28
2019-06-26T10:21:43.125Z,6.25
2019-06-26T10:24:10.362Z,6.22
2019-06-26T10:26:37.952Z,6.08
2019-06-26T10:29:05.414Z,6.05
2019-06-26T10:31:32.646Z,6.10
2019-06-26T10:33:59.994Z,5.80
2019-06-26T10:36:27.557Z,5.87
2019-06-26T10:38:55.263Z,6.08
2019-06-26T10:41:22.562Z,6.00
2019-06-26T10:43:50.492Z,5.95
2019-06-26T10:46:17.818Z,5.97
2019-06-26T10:48:45.453Z,5.53
2019-06-26T10:51:12.687Z,5.70
2019-06-26T10:53:40.167Z,4.92
2019-06-26T10:56:07.559Z,5.17
2019-06-26T10:58:34.883Z,4.50
2019-06-26T11:01:03.520Z,5.20
2019-06-26T11:03:30.826Z,4.85
2019-06-26T11:05:58.227Z,5.12
2019-06-26T11:08:25.456Z,4.90
2019-06-26T11:10:52.769Z,5.20
2019-06-26T11:13:20.663Z,5.25
2019-06-26T11:15:48.477Z,5.10
2019-06-26T11:18:15.922Z,5.03
2019-06-26T11:20:43.195Z,5.22
2019-06-26T11:23:10.512Z,5.20
2019-06-26T11:25:37.821Z,5.50
2019-06-26T11:28:05.050Z,5.03
2019-06-26T11:30:32.326Z,5.25
2019-06-26T11:32:59.673Z,4.85
2019-06-26T11:35:26.882Z,5.20
2019-06-26T11:37:54.391Z,5.50
2019-06-26T11:40:21.950Z,4.67
2019-06-26T11:42:49.277Z,5.67
2019-06-26T11:45:17.029Z,5.42
2019-06-26T11:47:45.939Z,5.85
2019-06-26T11:50:14.075Z,5.33
2019-06-26T11:52:41.724Z,5.62
2019-06-26T11:55:11.000Z,5.10
2019-06-26T11:57:38.648Z,5.70
2019-06-26T12:00:09.183Z,5.37
2019-06-26T12:02:36.847Z,5.35
2019-06-26T12:05:04.934Z,5.87
2019-06-26T12:07:32.175Z,5.70
2019-06-26T12:09:59.650Z,5.37
2019-06-26T12:12:27.177Z,5.72
2019-06-26T12:14:54.485Z,5.87
2019-06-26T12:17:22.014Z,5.60
2019-06-26T12:19:49.491Z,5.00
2019-06-26T12:22:17.006Z,4.90
2019-06-26T12:24:44.398Z,5.12
2019-06-26T12:27:12.437Z,5.40
2019-06-26T12:29:40.097Z,5.55
2019-06-26T12:32:07.536Z,5.10
2019-06-26T12:34:35.206Z,5.15
2019-06-26T12:37:02.507Z,5.53
2019-06-26T12:39:29.799Z,5.80
2019-06-26T12:41:57.151Z,5.20
2019-06-26T12:44:24.450Z,5.62
2019-06-26T12:46:51.755Z,5.67
2019-06-26T12:49:18.989Z,5.97
2019-06-26T12:51:46.239Z,5.90
2019-06-26T12:54:13.463Z,5.72
2019-06-26T12:56:41.094Z,5.97
2019-06-26T12:59:08.342Z,6.05
2019-06-26T13:01:35.670Z,6.00
2019-06-26T13:04:03.253Z,6.05
2019-06-26T13:06:30.948Z,6.22
2019-06-26T13:08:58.603Z,5.85
2019-06-26T13:11:25.893Z,6.50
2019-06-26T13:14:02.684Z,6.72
2019-06-26T13:16:22.359Z,6.10
2019-06-26T13:18:49.964Z,6.60
2019-06-26T13:21:17.753Z,6.83
2019-06-26T13:23:45.436Z,6.70
2019-06-26T13:26:12.881Z,6.87
2019-06-26T13:28:40.218Z,7.28
2019-06-26T13:31:08.118Z,6.83
2019-06-26T13:33:35.448Z,7.30
2019-06-26T13:36:02.856Z,7.17
2019-06-26T13:38:30.538Z,7.00
2019-06-26T13:40:58.586Z,7.08
2019-06-26T13:43:25.906Z,7.37
2019-06-26T13:45:53.509Z,7.42
2019-06-26T13:48:21.370Z,7.30
2019-06-26T13:50:49.135Z,7.22
2019-06-26T13:53:16.390Z,6.95
2019-06-26T13:55:43.781Z,7.80
2019-06-26T13:58:11.016Z,7.30
2019-06-26T14:00:38.860Z,6.97
2019-06-26T14:03:06.422Z,7.47
2019-06-26T14:05:34.487Z,7.95
2019-06-26T14:08:01.722Z,7.25
2019-06-26T14:10:29.038Z,7.42
2019-06-26T14:12:56.294Z,7.40
2019-06-26T14:15:24.389Z,7.72
2019-06-26T14:17:51.790Z,7.37
2019-06-26T14:20:19.349Z,7.90
2019-06-26T14:22:46.987Z,7.28
2019-06-26T14:25:14.375Z,7.87
2019-06-26T14:27:41.843Z,7.45
2019-06-26T14:30:10.249Z,7.35
2019-06-26T14:32:37.473Z,7.95
2019-06-26T14:35:05.268Z,7.62
2019-06-26T14:37:32.578Z,7.47
2019-06-26T14:40:00.418Z,7.53
2019-06-26T14:42:27.769Z,7.80
2019-06-26T14:44:55.010Z,7.40
2019-06-26T14:47:22.684Z,7.65
2019-06-26T14:49:50.238Z,7.75
2019-06-26T14:52:17.538Z,7.58
2019-06-26T14:54:44.766Z,7.35
2019-06-26T14:57:12.429Z,7.28
2019-06-26T14:59:40.084Z,7.72
2019-06-26T15:02:07.734Z,8.05
2019-06-26T15:04:35.391Z,8.95
2019-06-26T15:07:02.912Z,7.45
2019-06-26T15:09:30.250Z,7.33
2019-06-26T15:11:57.734Z,7.42
2019-06-26T15:14:24.966Z,7.67
2019-06-26T15:16:52.981Z,7.55
2019-06-26T15:19:20.283Z,7.72
2019-06-26T15:21:57.967Z,7.80
2019-06-26T15:24:16.945Z,7.40
2019-06-26T15:26:44.871Z,7.60
2019-06-26T15:29:12.518Z,7.95
2019-06-26T15:31:39.854Z,7.87
2019-06-26T15:34:07.561Z,7.58
2019-06-26T15:36:34.904Z,8.10
2019-06-26T15:39:04.300Z,7.50
2019-06-26T15:41:31.949Z,7.67
2019-06-26T15:43:59.546Z,7.97
2019-06-26T15:46:26.898Z,7.45
2019-06-26T15:48:54.185Z,7.50
2019-06-26T15:51:21.437Z,8.00
2019-06-26T15:53:48.661Z,7.80
2019-06-26T15:56:15.991Z,8.03
2019-06-26T15:58:43.220Z,7.70
2019-06-26T16:01:10.808Z,7.58
2019-06-26T16:03:38.215Z,7.47
2019-06-26T16:06:05.438Z,7.40
2019-06-26T16:08:32.786Z,7.78
2019-06-26T16:11:00.016Z,7.83
2019-06-26T16:13:28.519Z,7.30
2019-06-26T16:15:55.841Z,7.60
2019-06-26T16:18:34.427Z,7.77
2019-06-26T16:21:01.680Z,7.90
2019-06-26T16:23:29.018Z,7.75
2019-06-26T16:25:56.325Z,7.80
2019-06-26T16:28:23.871Z,7.75
2019-06-26T16:30:51.112Z,7.60
2019-06-26T16:33:18.349Z,8.10
2019-06-26T16:35:45.598Z,8.20
2019-06-26T16:38:12.904Z,8.80
2019-06-26T16:40:40.185Z,7.77
2019-06-26T16:43:07.794Z,7.97
2019-06-26T16:45:35.026Z,7.93
2019-06-26T16:48:02.300Z,7.77
2019-06-26T16:50:30.630Z,7.95
2019-06-26T16:52:58.329Z,7.53
2019-06-26T16:55:27.231Z,7.97
2019-06-26T16:57:54.894Z,7.93
2019-06-26T17:00:22.558Z,7.20
2019-06-26T17:02:50.008Z,7.70
2019-06-26T17:05:17.313Z,7.30
2019-06-26T17:07:44.609Z,7.35
2019-06-26T17:10:12.049Z,7.80
2019-06-26T17:12:39.628Z,7.22
2019-06-26T17:15:07.909Z,7.40
2019-06-26T17:17:35.306Z,7.50
2019-06-26T17:20:03.158Z,7.70
2019-06-26T17:22:30.849Z,8.55
2019-06-26T17:24:58.442Z,7.60
2019-06-26T17:27:26.026Z,7.37
2019-06-26T17:29:53.265Z,7.92
2019-06-26T17:32:21.031Z,7.77
2019-06-26T17:34:48.987Z,7.87
2019-06-26T17:37:16.217Z,7.22
2019-06-26T17:39:43.521Z,7.80
2019-06-26T17:42:11.046Z,7.95
2019-06-26T17:44:38.610Z,7.73
2019-06-26T17:47:05.845Z,7.40
2019-06-26T17:49:33.489Z,7.23
2019-06-26T17:52:01.110Z,8.03
2019-06-26T17:54:28.357Z,8.10
2019-06-26T17:56:55.582Z,7.53
2019-06-26T17:59:23.097Z,8.20
2019-06-26T18:01:50.456Z,8.33
2019-06-26T18:04:17.754Z,7.93
2019-06-26T18:06:45.065Z,8.10
2019-06-26T18:09:12.717Z,8.33
2019-06-26T18:11:39.986Z,7.93
2019-06-26T18:14:07.286Z,9.00
2019-06-26T18:16:34.830Z,8.93
2019-06-26T18:19:02.067Z,8.60
2019-06-26T18:21:29.801Z,8.50
2019-06-26T18:23:58.715Z,8.57
2019-06-26T18:26:26.397Z,8.77
2019-06-26T18:28:53.697Z,9.30
2019-06-26T18:31:20.921Z,9.23
2019-06-26T18:33:48.154Z,9.33
2019-06-26T18:36:15.465Z,9.17
2019-06-26T18:38:43.477Z,9.90
2019-06-26T18:41:11.039Z,9.40
2019-06-26T18:43:38.697Z,9.37
2019-06-26T18:46:05.985Z,10.07
2019-06-26T18:48:33.534Z,9.90
2019-06-26T18:51:00.760Z,9.40
2019-06-26T18:53:28.530Z,9.90
2019-06-26T18:55:56.181Z,9.60
2019-06-26T18:58:23.845Z,9.80
2019-06-26T19:00:51.414Z,10.10
2019-06-26T19:03:19.070Z,10.47
2019-06-26T19:05:46.310Z,10.27
2019-06-26T19:08:13.981Z,10.03
2019-06-26T19:10:41.846Z,10.53
2019-06-26T19:13:09.435Z,10.30
2019-06-26T19:15:36.749Z,10.57
2019-06-26T19:18:04.422Z,10.13
2019-06-26T19:20:33.951Z,10.83
2019-06-26T19:23:01.134Z,11.40
2019-06-26T19:25:28.366Z,11.47
2019-06-26T19:27:55.681Z,10.80
2019-06-26T19:30:23.544Z,12.17
2019-06-26T19:32:51.414Z,10.50
2019-06-26T19:35:19.773Z,11.40
2019-06-26T19:37:48.273Z,11.07
2019-06-26T19:40:15.569Z,10.87
2019-06-26T19:42:43.082Z,11.47
2019-06-26T19:45:12.186Z,11.57
2019-06-26T19:47:39.426Z,11.27
2019-06-26T19:50:07.385Z,11.33
2019-06-26T19:52:35.265Z,12.30
2019-06-26T19:55:03.135Z,12.07
2019-06-26T19:57:30.757Z,12.73
2019-06-26T19:59:58.354Z,12.90
2019-06-26T20:02:25.914Z,13.47
2019-06-26T20:04:53.221Z,13.13
2019-06-26T20:07:20.479Z,14.00
2019-06-26T20:09:48.181Z,13.73
2019-06-26T20:12:15.737Z,14.20
2019-06-26T20:14:43.301Z,14.73
2019-06-26T20:17:10.904Z,14.40
2019-06-26T20:19:38.522Z,14.70
2019-06-26T20:22:06.081Z,14.93
2019-06-26T20:24:43.385Z,15.57
2019-06-26T20:27:02.658Z,15.63
2019-06-26T20:29:30.002Z,15.03
2019-06-26T20:31:57.342Z,15.60
2019-06-26T20:34:26.438Z,14.53
2019-06-26T20:36:54.006Z,15.60
2019-06-26T20:39:21.654Z,14.63
2019-06-26T20:41:49.214Z,14.93
2019-06-26T20:44:16.892Z,15.17
2019-06-26T20:46:44.114Z,14.37
2019-06-26T20:49:11.521Z,14.90
2019-06-26T20:51:38.785Z,14.77
2019-06-26T20:54:07.288Z,15.30
2019-06-26T20:56:34.776Z,14.37
2019-06-26T20:59:02.439Z,14.23
2019-06-26T21:01:29.670Z,15.00
2019-06-26T21:03:57.246Z,14.47
2019-06-26T21:06:24.486Z,14.03
2019-06-26T21:08:52.361Z,14.20
2019-06-26T21:11:19.927Z,14.07
2019-06-26T21:13:47.251Z,13.53
2019-06-26T21:16:14.968Z,13.87
2019-06-26T21:18:48.314Z,14.13
2019-06-26T21:21:15.571Z,13.47
2019-06-26T21:23:43.154Z,13.10
2019-06-26T21:26:10.700Z,14.00
2019-06-26T21:28:38.270Z,14.43
2019-06-26T21:31:05.645Z,14.50
2019-06-26T21:33:32.936Z,14.10
2019-06-26T21:36:00.636Z,13.93
2019-06-26T21:38:28.013Z,14.23
2019-06-26T21:40:55.361Z,13.90
2019-06-26T21:43:22.674Z,13.73
2019-06-26T21:45:49.926Z,14.60
2019-06-26T21:48:17.506Z,14.37
2019-06-26T21:50:44.778Z,14.20
2019-06-26T21:53:14.164Z,13.67
2019-06-26T21:55:41.417Z,13.43
2019-06-26T21:58:08.809Z,14.50
2019-06-26T22:00:37.062Z,14.17
2019-06-26T22:03:05.217Z,14.30
2019-06-26T22:05:32.477Z,14.07
2019-06-26T22:07:59.745Z,14.53
2019-06-26T22:10:27.399Z,14.50
2019-06-26T22:12:54.710Z,14.53
2019-06-26T22:15:22.298Z,14.93
2019-06-26T22:17:49.706Z,14.97
2019-06-26T22:20:20.281Z,15.20
2019-06-26T22:22:49.614Z,14.83
2019-06-26T22:25:24.418Z,15.10
2019-06-26T22:27:51.683Z,14.83
2019-06-26T22:30:20.842Z,15.07
2019-06-26T22:32:52.960Z,14.97
2019-06-26T22:35:20.439Z,14.63
2019-06-26T22:37:48.354Z,15.40
2019-06-26T22:40:17.507Z,16.27
2019-06-26T22:42:48.060Z,15.33
2019-06-26T22:45:15.560Z,15.10
2019-06-26T22:47:49.258Z,15.33
2019-06-26T22:50:16.763Z,15.67
2019-06-26T22:52:44.395Z,15.77
2019-06-26T22:55:12.938Z,16.03
2019-06-26T22:57:49.551Z,16.17
2019-06-26T23:00:19.416Z,15.67
2019-06-26T23:02:46.770Z,16.50
2019-06-26T23:05:14.474Z,16.07
2019-06-26T23:07:41.799Z,17.23
2019-06-26T23:10:09.567Z,16.30
2019-06-26T23:12:36.826Z,17.90
2019-06-26T23:15:05.034Z,17.47
2019-06-26T23:17:32.373Z,16.93
2019-06-26T23:20:00.031Z,16.73
2019-06-26T23:22:27.370Z,16.40
2019-06-26T23:24:54.705Z,17.13
2019-06-26T23:27:21.938Z,18.30
2019-06-26T23:29:49.167Z,17.27
2019-06-26T23:32:16.490Z,17.57
2019-06-26T23:34:43.719Z,17.10
2019-06-26T23:37:11.296Z,16.60
2019-06-26T23:39:38.523Z,18.93
2019-06-26T23:42:05.933Z,18.33
2019-06-26T23:44:33.451Z,18.30
2019-06-26T23:47:00.681Z,18.57
2019-06-26T23:49:27.828Z,18.83
2019-06-26T23:51:55.507Z,19.07
2019-06-26T23:54:23.142Z,18.20
2019-06-26T23:56:50.827Z,18.43
2019-06-26T23:59:18.382Z,19.63
